sensor_id;sensor_type;location;lat;lon;timestamp;temperature;humidity
42663;DHT22;44330;51.360;6.686;2023-03-26T00:01:04;8.60;92.10
42663;DHT22;44330;51.360;6.686;2023-03-26T00:03:32;8.60;92.10
42663;DHT22;44330;51.360;6.686;2023-03-26T00:06:28;8.60;91.80
42663;DHT22;44330;51.360;6.686;2023-03-26T00:08:56;8.60;91.60
42663;DHT22;44330;51.360;6.686;2023-03-26T00:11:23;8.70;91.10
42663;DHT22;44330;51.360;6.686;2023-03-26T00:13:50;8.70;90.70
42663;DHT22;44330;51.360;6.686;2023-03-26T00:16:18;8.60;90.50
42663;DHT22;44330;51.360;6.686;2023-03-26T00:18:45;8.60;90.80
42663;DHT22;44330;51.360;6.686;2023-03-26T00:21:21;8.60;90.90
42663;DHT22;44330;51.360;6.686;2023-03-26T00:23:52;8.60;91.20
42663;DHT22;44330;51.360;6.686;2023-03-26T00:26:18;8.60;91.00
42663;DHT22;44330;51.360;6.686;2023-03-26T00:28:43;8.60;90.40
42663;DHT22;44330;51.360;6.686;2023-03-26T00:31:11;8.70;88.80
42663;DHT22;44330;51.360;6.686;2023-03-26T00:33:38;8.70;88.60
42663;DHT22;44330;51.360;6.686;2023-03-26T00:36:07;8.70;88.20
42663;DHT22;44330;51.360;6.686;2023-03-26T00:38:36;8.70;87.80
42663;DHT22;44330;51.360;6.686;2023-03-26T00:41:04;8.60;88.10
42663;DHT22;44330;51.360;6.686;2023-03-26T00:43:32;8.60;88.80
42663;DHT22;44330;51.360;6.686;2023-03-26T00:45:58;8.50;88.60
42663;DHT22;44330;51.360;6.686;2023-03-26T00:48:24;8.60;88.80
42663;DHT22;44330;51.360;6.686;2023-03-26T00:50:51;8.60;88.10
42663;DHT22;44330;51.360;6.686;2023-03-26T00:53:18;8.60;87.10
42663;DHT22;44330;51.360;6.686;2023-03-26T00:55:45;8.50;87.80
42663;DHT22;44330;51.360;6.686;2023-03-26T00:58:12;8.60;88.40
42663;DHT22;44330;51.360;6.686;2023-03-26T01:00:51;8.50;88.50
42663;DHT22;44330;51.360;6.686;2023-03-26T01:03:18;8.50;89.40
42663;DHT22;44330;51.360;6.686;2023-03-26T01:05:50;8.50;88.40
42663;DHT22;44330;51.360;6.686;2023-03-26T01:08:27;8.50;87.50
42663;DHT22;44330;51.360;6.686;2023-03-26T01:10:56;8.50;87.70
42663;DHT22;44330;51.360;6.686;2023-03-26T01:13:31;8.50;88.10
42663;DHT22;44330;51.360;6.686;2023-03-26T01:15:57;8.40;87.40
42663;DHT22;44330;51.360;6.686;2023-03-26T01:18:27;8.50;85.80
42663;DHT22;44330;51.360;6.686;2023-03-26T01:20:54;8.60;85.00
42663;DHT22;44330;51.360;6.686;2023-03-26T01:23:40;8.60;83.70
42663;DHT22;44330;51.360;6.686;2023-03-26T01:29:53;8.50;84.90
42663;DHT22;44330;51.360;6.686;2023-03-26T01:33:12;8.50;84.30
42663;DHT22;44330;51.360;6.686;2023-03-26T01:36:06;8.50;83.40
42663;DHT22;44330;51.360;6.686;2023-03-26T01:38:50;8.40;84.30
42663;DHT22;44330;51.360;6.686;2023-03-26T01:44:22;8.30;85.50
42663;DHT22;44330;51.360;6.686;2023-03-26T01:46:49;8.30;85.60
42663;DHT22;44330;51.360;6.686;2023-03-26T01:49:17;8.20;86.40
42663;DHT22;44330;51.360;6.686;2023-03-26T01:51:42;8.10;87.40
42663;DHT22;44330;51.360;6.686;2023-03-26T01:54:12;8.00;88.20
42663;DHT22;44330;51.360;6.686;2023-03-26T02:01:57;7.90;89.80
42663;DHT22;44330;51.360;6.686;2023-03-26T02:07:39;7.90;90.20
42663;DHT22;44330;51.360;6.686;2023-03-26T02:10:15;7.80;90.60
42663;DHT22;44330;51.360;6.686;2023-03-26T02:12:42;7.90;90.90
42663;DHT22;44330;51.360;6.686;2023-03-26T02:15:08;7.90;90.90
42663;DHT22;44330;51.360;6.686;2023-03-26T02:17:34;7.90;90.80
42663;DHT22;44330;51.360;6.686;2023-03-26T02:20:00;7.90;90.80
42663;DHT22;44330;51.360;6.686;2023-03-26T02:22:30;7.90;90.70
42663;DHT22;44330;51.360;6.686;2023-03-26T02:24:55;8.00;90.50
42663;DHT22;44330;51.360;6.686;2023-03-26T02:27:21;8.10;90.00
42663;DHT22;44330;51.360;6.686;2023-03-26T02:29:46;8.10;90.00
42663;DHT22;44330;51.360;6.686;2023-03-26T02:32:14;8.10;90.00
42663;DHT22;44330;51.360;6.686;2023-03-26T02:34:40;8.10;90.00
42663;DHT22;44330;51.360;6.686;2023-03-26T02:37:06;8.10;89.50
42663;DHT22;44330;51.360;6.686;2023-03-26T02:39:33;8.10;89.70
42663;DHT22;44330;51.360;6.686;2023-03-26T02:41:59;8.00;90.10
42663;DHT22;44330;51.360;6.686;2023-03-26T02:44:25;8.00;90.30
42663;DHT22;44330;51.360;6.686;2023-03-26T02:46:51;7.90;90.60
42663;DHT22;44330;51.360;6.686;2023-03-26T02:49:17;7.90;90.80
42663;DHT22;44330;51.360;6.686;2023-03-26T02:51:42;7.80;90.90
42663;DHT22;44330;51.360;6.686;2023-03-26T02:54:08;7.80;90.90
42663;DHT22;44330;51.360;6.686;2023-03-26T02:56:34;7.70;90.80
42663;DHT22;44330;51.360;6.686;2023-03-26T02:59:00;7.70;91.00
42663;DHT22;44330;51.360;6.686;2023-03-26T03:01:25;7.60;91.00
42663;DHT22;44330;51.360;6.686;2023-03-26T03:03:55;7.60;91.00
42663;DHT22;44330;51.360;6.686;2023-03-26T03:06:21;7.50;91.10
42663;DHT22;44330;51.360;6.686;2023-03-26T03:08:47;7.50;91.20
42663;DHT22;44330;51.360;6.686;2023-03-26T03:11:15;7.40;91.30
42663;DHT22;44330;51.360;6.686;2023-03-26T03:13:42;7.30;91.30
42663;DHT22;44330;51.360;6.686;2023-03-26T03:16:09;7.20;91.30
42663;DHT22;44330;51.360;6.686;2023-03-26T03:18:35;7.20;91.30
42663;DHT22;44330;51.360;6.686;2023-03-26T03:21:01;7.10;91.10
42663;DHT22;44330;51.360;6.686;2023-03-26T03:23:27;7.10;91.10
42663;DHT22;44330;51.360;6.686;2023-03-26T03:25:53;7.00;91.10
42663;DHT22;44330;51.360;6.686;2023-03-26T03:28:21;6.90;91.20
42663;DHT22;44330;51.360;6.686;2023-03-26T03:30:47;6.90;91.30
42663;DHT22;44330;51.360;6.686;2023-03-26T03:33:20;6.90;91.50
42663;DHT22;44330;51.360;6.686;2023-03-26T03:35:46;6.80;91.70
42663;DHT22;44330;51.360;6.686;2023-03-26T03:38:14;6.80;92.00
42663;DHT22;44330;51.360;6.686;2023-03-26T03:40:40;6.80;92.00
42663;DHT22;44330;51.360;6.686;2023-03-26T03:43:05;6.80;92.20
42663;DHT22;44330;51.360;6.686;2023-03-26T03:45:31;6.80;92.30
42663;DHT22;44330;51.360;6.686;2023-03-26T03:47:57;6.80;92.40
42663;DHT22;44330;51.360;6.686;2023-03-26T03:50:22;6.80;92.60
42663;DHT22;44330;51.360;6.686;2023-03-26T03:52:48;6.80;92.80
42663;DHT22;44330;51.360;6.686;2023-03-26T03:55:15;6.80;92.90
42663;DHT22;44330;51.360;6.686;2023-03-26T03:57:40;6.80;93.00
42663;DHT22;44330;51.360;6.686;2023-03-26T04:00:06;6.80;93.10
42663;DHT22;44330;51.360;6.686;2023-03-26T04:02:36;6.80;93.30
42663;DHT22;44330;51.360;6.686;2023-03-26T04:05:03;6.80;93.40
42663;DHT22;44330;51.360;6.686;2023-03-26T04:07:30;6.80;93.50
42663;DHT22;44330;51.360;6.686;2023-03-26T04:09:57;6.70;93.50
42663;DHT22;44330;51.360;6.686;2023-03-26T04:12:27;6.80;93.70
42663;DHT22;44330;51.360;6.686;2023-03-26T04:14:53;6.80;93.80
42663;DHT22;44330;51.360;6.686;2023-03-26T04:17:19;6.80;93.90
42663;DHT22;44330;51.360;6.686;2023-03-26T04:19:49;6.80;94.00
42663;DHT22;44330;51.360;6.686;2023-03-26T04:22:17;6.80;94.10
42663;DHT22;44330;51.360;6.686;2023-03-26T04:24:44;6.80;94.10
42663;DHT22;44330;51.360;6.686;2023-03-26T04:27:12;6.80;94.20
42663;DHT22;44330;51.360;6.686;2023-03-26T04:29:41;6.90;94.20
42663;DHT22;44330;51.360;6.686;2023-03-26T04:32:21;6.90;94.30
42663;DHT22;44330;51.360;6.686;2023-03-26T04:34:47;6.90;94.30
42663;DHT22;44330;51.360;6.686;2023-03-26T04:37:19;6.90;94.30
42663;DHT22;44330;51.360;6.686;2023-03-26T04:39:46;6.90;94.30
42663;DHT22;44330;51.360;6.686;2023-03-26T04:42:12;6.90;94.40
42663;DHT22;44330;51.360;6.686;2023-03-26T04:44:38;6.90;94.50
42663;DHT22;44330;51.360;6.686;2023-03-26T04:47:06;6.90;94.50
42663;DHT22;44330;51.360;6.686;2023-03-26T04:49:32;7.00;94.60
42663;DHT22;44330;51.360;6.686;2023-03-26T04:51:57;6.90;94.70
42663;DHT22;44330;51.360;6.686;2023-03-26T04:54:23;7.00;94.70
42663;DHT22;44330;51.360;6.686;2023-03-26T04:56:53;7.00;94.80
42663;DHT22;44330;51.360;6.686;2023-03-26T04:59:27;7.00;94.90
42663;DHT22;44330;51.360;6.686;2023-03-26T05:01:55;7.00;95.00
42663;DHT22;44330;51.360;6.686;2023-03-26T05:04:22;7.00;95.00
42663;DHT22;44330;51.360;6.686;2023-03-26T05:06:48;7.00;95.10
42663;DHT22;44330;51.360;6.686;2023-03-26T05:09:14;7.00;95.10
42663;DHT22;44330;51.360;6.686;2023-03-26T05:11:40;7.00;95.10
42663;DHT22;44330;51.360;6.686;2023-03-26T05:14:06;7.10;95.20
42663;DHT22;44330;51.360;6.686;2023-03-26T05:16:32;7.10;95.30
42663;DHT22;44330;51.360;6.686;2023-03-26T05:18:58;7.10;95.30
42663;DHT22;44330;51.360;6.686;2023-03-26T05:21:23;7.10;95.50
42663;DHT22;44330;51.360;6.686;2023-03-26T05:23:49;7.10;95.40
42663;DHT22;44330;51.360;6.686;2023-03-26T05:26:15;7.10;95.40
42663;DHT22;44330;51.360;6.686;2023-03-26T05:28:41;7.10;95.40
42663;DHT22;44330;51.360;6.686;2023-03-26T05:31:06;7.10;95.50
42663;DHT22;44330;51.360;6.686;2023-03-26T05:33:33;7.10;95.50
42663;DHT22;44330;51.360;6.686;2023-03-26T05:36:07;7.10;95.60
42663;DHT22;44330;51.360;6.686;2023-03-26T05:38:34;7.10;95.60
42663;DHT22;44330;51.360;6.686;2023-03-26T05:41:02;7.10;95.70
42663;DHT22;44330;51.360;6.686;2023-03-26T05:43:29;7.10;95.70
42663;DHT22;44330;51.360;6.686;2023-03-26T05:45:55;7.10;95.80
42663;DHT22;44330;51.360;6.686;2023-03-26T05:48:20;7.10;95.80
42663;DHT22;44330;51.360;6.686;2023-03-26T05:50:48;7.10;95.80
42663;DHT22;44330;51.360;6.686;2023-03-26T05:53:13;7.20;95.90
42663;DHT22;44330;51.360;6.686;2023-03-26T05:55:40;7.20;96.00
42663;DHT22;44330;51.360;6.686;2023-03-26T05:58:05;7.20;96.00
42663;DHT22;44330;51.360;6.686;2023-03-26T06:00:31;7.20;96.00
42663;DHT22;44330;51.360;6.686;2023-03-26T06:02:58;7.30;96.10
42663;DHT22;44330;51.360;6.686;2023-03-26T06:05:23;7.30;96.10
42663;DHT22;44330;51.360;6.686;2023-03-26T06:07:50;7.30;96.10
42663;DHT22;44330;51.360;6.686;2023-03-26T06:10:16;7.30;96.10
42663;DHT22;44330;51.360;6.686;2023-03-26T06:12:42;7.40;96.20
42663;DHT22;44330;51.360;6.686;2023-03-26T06:15:08;7.40;96.20
42663;DHT22;44330;51.360;6.686;2023-03-26T06:17:34;7.50;96.30
42663;DHT22;44330;51.360;6.686;2023-03-26T06:20:00;7.50;96.30
42663;DHT22;44330;51.360;6.686;2023-03-26T06:22:25;7.60;96.30
42663;DHT22;44330;51.360;6.686;2023-03-26T06:24:51;7.60;96.20
42663;DHT22;44330;51.360;6.686;2023-03-26T06:27:17;7.60;96.20
42663;DHT22;44330;51.360;6.686;2023-03-26T06:29:42;7.70;96.20
42663;DHT22;44330;51.360;6.686;2023-03-26T06:32:08;7.70;96.10
42663;DHT22;44330;51.360;6.686;2023-03-26T06:34:33;7.70;96.00
42663;DHT22;44330;51.360;6.686;2023-03-26T06:36:59;7.70;96.00
42663;DHT22;44330;51.360;6.686;2023-03-26T06:39:25;7.70;96.00
42663;DHT22;44330;51.360;6.686;2023-03-26T06:41:51;7.70;95.90
42663;DHT22;44330;51.360;6.686;2023-03-26T06:44:16;7.70;96.00
42663;DHT22;44330;51.360;6.686;2023-03-26T06:46:42;7.80;96.00
42663;DHT22;44330;51.360;6.686;2023-03-26T06:49:07;7.80;95.90
42663;DHT22;44330;51.360;6.686;2023-03-26T06:51:33;7.80;95.80
42663;DHT22;44330;51.360;6.686;2023-03-26T06:53:59;7.80;95.70
42663;DHT22;44330;51.360;6.686;2023-03-26T06:56:24;7.80;95.60
42663;DHT22;44330;51.360;6.686;2023-03-26T06:58:50;7.80;95.70
42663;DHT22;44330;51.360;6.686;2023-03-26T07:01:16;7.80;95.70
42663;DHT22;44330;51.360;6.686;2023-03-26T07:03:41;7.90;95.70
42663;DHT22;44330;51.360;6.686;2023-03-26T07:06:07;7.90;95.70
42663;DHT22;44330;51.360;6.686;2023-03-26T07:08:33;7.90;95.60
42663;DHT22;44330;51.360;6.686;2023-03-26T07:10:58;7.90;95.70
42663;DHT22;44330;51.360;6.686;2023-03-26T07:13:24;7.90;95.70
42663;DHT22;44330;51.360;6.686;2023-03-26T07:15:49;7.90;95.80
42663;DHT22;44330;51.360;6.686;2023-03-26T07:18:15;7.90;95.70
42663;DHT22;44330;51.360;6.686;2023-03-26T07:20:42;7.90;95.70
42663;DHT22;44330;51.360;6.686;2023-03-26T07:23:09;7.90;95.70
42663;DHT22;44330;51.360;6.686;2023-03-26T07:25:36;7.90;95.80
42663;DHT22;44330;51.360;6.686;2023-03-26T07:31:40;7.90;96.00
42663;DHT22;44330;51.360;6.686;2023-03-26T07:42:45;8.10;96.20
42663;DHT22;44330;51.360;6.686;2023-03-26T07:47:47;8.20;96.10
42663;DHT22;44330;51.360;6.686;2023-03-26T07:50:15;8.10;96.10
42663;DHT22;44330;51.360;6.686;2023-03-26T07:52:41;8.20;96.10
42663;DHT22;44330;51.360;6.686;2023-03-26T07:55:12;8.20;96.10
42663;DHT22;44330;51.360;6.686;2023-03-26T08:05:12;8.30;96.10
42663;DHT22;44330;51.360;6.686;2023-03-26T08:07:57;8.40;96.20
42663;DHT22;44330;51.360;6.686;2023-03-26T08:10:32;8.30;96.20
42663;DHT22;44330;51.360;6.686;2023-03-26T08:13:23;8.40;96.20
42663;DHT22;44330;51.360;6.686;2023-03-26T08:16:08;8.40;96.30
42663;DHT22;44330;51.360;6.686;2023-03-26T08:23:56;8.50;96.30
42663;DHT22;44330;51.360;6.686;2023-03-26T08:26:40;8.50;96.20
42663;DHT22;44330;51.360;6.686;2023-03-26T08:32:17;8.50;96.20
42663;DHT22;44330;51.360;6.686;2023-03-26T08:34:43;8.50;96.20
42663;DHT22;44330;51.360;6.686;2023-03-26T08:37:08;8.60;96.30
42663;DHT22;44330;51.360;6.686;2023-03-26T08:39:35;8.60;96.30
42663;DHT22;44330;51.360;6.686;2023-03-26T08:45:06;8.60;96.20
42663;DHT22;44330;51.360;6.686;2023-03-26T08:48:04;8.70;96.20
42663;DHT22;44330;51.360;6.686;2023-03-26T08:56:38;8.70;95.90
42663;DHT22;44330;51.360;6.686;2023-03-26T09:11:16;8.70;95.50
42663;DHT22;44330;51.360;6.686;2023-03-26T09:27:39;8.90;95.70
42663;DHT22;44330;51.360;6.686;2023-03-26T09:39:22;9.00;95.60
42663;DHT22;44330;51.360;6.686;2023-03-26T09:44:55;9.10;95.50
42663;DHT22;44330;51.360;6.686;2023-03-26T09:47:54;9.10;95.40
42663;DHT22;44330;51.360;6.686;2023-03-26T09:50:37;9.10;95.30
42663;DHT22;44330;51.360;6.686;2023-03-26T09:53:23;9.10;94.40
42663;DHT22;44330;51.360;6.686;2023-03-26T09:56:00;9.10;93.40
42663;DHT22;44330;51.360;6.686;2023-03-26T10:06:35;8.90;91.70
42663;DHT22;44330;51.360;6.686;2023-03-26T10:20:27;8.70;91.30
42663;DHT22;44330;51.360;6.686;2023-03-26T10:26:04;8.60;90.50
42663;DHT22;44330;51.360;6.686;2023-03-26T10:28:45;8.50;89.80
42663;DHT22;44330;51.360;6.686;2023-03-26T10:40:19;8.60;91.40
42663;DHT22;44330;51.360;6.686;2023-03-26T10:43:06;8.70;90.90
42663;DHT22;44330;51.360;6.686;2023-03-26T10:53:57;8.70;91.60
42663;DHT22;44330;51.360;6.686;2023-03-26T10:56:45;8.70;91.30
42663;DHT22;44330;51.360;6.686;2023-03-26T10:59:12;8.70;91.60
42663;DHT22;44330;51.360;6.686;2023-03-26T11:07:48;8.70;91.40
42663;DHT22;44330;51.360;6.686;2023-03-26T11:10:36;8.80;90.20
42663;DHT22;44330;51.360;6.686;2023-03-26T11:14:09;8.80;88.40
42663;DHT22;44330;51.360;6.686;2023-03-26T11:16:04;8.90;88.40
42663;DHT22;44330;51.360;6.686;2023-03-26T11:19:01;9.00;88.00
42663;DHT22;44330;51.360;6.686;2023-03-26T11:21:37;8.80;79.70
42663;DHT22;44330;51.360;6.686;2023-03-26T11:24:24;8.90;84.90
42663;DHT22;44330;51.360;6.686;2023-03-26T11:27:00;9.00;87.00
42663;DHT22;44330;51.360;6.686;2023-03-26T11:29:37;9.00;83.00
42663;DHT22;44330;51.360;6.686;2023-03-26T11:32:16;9.00;85.40
42663;DHT22;44330;51.360;6.686;2023-03-26T11:34:58;9.10;86.40
42663;DHT22;44330;51.360;6.686;2023-03-26T11:37:34;9.00;79.40
42663;DHT22;44330;51.360;6.686;2023-03-26T11:40:17;8.80;83.30
42663;DHT22;44330;51.360;6.686;2023-03-26T11:42:46;8.90;83.80
42663;DHT22;44330;51.360;6.686;2023-03-26T11:45:18;9.10;85.20
42663;DHT22;44330;51.360;6.686;2023-03-26T11:47:53;9.10;85.00
42663;DHT22;44330;51.360;6.686;2023-03-26T11:50:25;9.20;86.40
42663;DHT22;44330;51.360;6.686;2023-03-26T11:52:56;9.20;87.10
42663;DHT22;44330;51.360;6.686;2023-03-26T11:55:23;9.00;78.80
42663;DHT22;44330;51.360;6.686;2023-03-26T11:57:55;9.10;85.10
42663;DHT22;44330;51.360;6.686;2023-03-26T12:00:23;9.00;79.80
42663;DHT22;44330;51.360;6.686;2023-03-26T12:02:55;9.10;81.60
42663;DHT22;44330;51.360;6.686;2023-03-26T12:05:26;9.20;75.30
42663;DHT22;44330;51.360;6.686;2023-03-26T12:08:14;9.20;74.00
42663;DHT22;44330;51.360;6.686;2023-03-26T12:10:42;9.20;77.60
42663;DHT22;44330;51.360;6.686;2023-03-26T12:15:46;9.20;77.60
42663;DHT22;44330;51.360;6.686;2023-03-26T12:18:23;9.20;79.00
42663;DHT22;44330;51.360;6.686;2023-03-26T12:21:05;9.20;76.20
42663;DHT22;44330;51.360;6.686;2023-03-26T12:26:35;9.30;77.50
42663;DHT22;44330;51.360;6.686;2023-03-26T12:29:12;9.40;81.50
42663;DHT22;44330;51.360;6.686;2023-03-26T12:31:47;9.50;75.40
42663;DHT22;44330;51.360;6.686;2023-03-26T12:34:17;9.40;80.00
42663;DHT22;44330;51.360;6.686;2023-03-26T12:36:54;9.40;84.50
42663;DHT22;44330;51.360;6.686;2023-03-26T12:39:29;9.30;78.20
42663;DHT22;44330;51.360;6.686;2023-03-26T12:41:59;9.10;80.70
42663;DHT22;44330;51.360;6.686;2023-03-26T12:44:45;9.10;84.60
42663;DHT22;44330;51.360;6.686;2023-03-26T12:47:35;9.00;84.40
42663;DHT22;44330;51.360;6.686;2023-03-26T12:50:01;9.00;84.80
42663;DHT22;44330;51.360;6.686;2023-03-26T12:58:41;8.90;82.90
42663;DHT22;44330;51.360;6.686;2023-03-26T13:13:32;8.90;80.30
42663;DHT22;44330;51.360;6.686;2023-03-26T13:19:51;9.20;84.10
42663;DHT22;44330;51.360;6.686;2023-03-26T13:25:53;9.10;82.90
42663;DHT22;44330;51.360;6.686;2023-03-26T13:49:50;9.70;67.10
42663;DHT22;44330;51.360;6.686;2023-03-26T13:52:42;9.60;67.60
42663;DHT22;44330;51.360;6.686;2023-03-26T13:55:21;9.70;58.80
42663;DHT22;44330;51.360;6.686;2023-03-26T13:58:00;9.70;64.60
42663;DHT22;44330;51.360;6.686;2023-03-26T14:01:08;9.80;61.70
42663;DHT22;44330;51.360;6.686;2023-03-26T14:03:57;9.90;44.80
42663;DHT22;44330;51.360;6.686;2023-03-26T14:11:59;9.80;67.40
42663;DHT22;44330;51.360;6.686;2023-03-26T14:14:48;9.80;69.60
42663;DHT22;44330;51.360;6.686;2023-03-26T14:17:28;9.80;67.00
42663;DHT22;44330;51.360;6.686;2023-03-26T14:26:08;9.60;71.50
42663;DHT22;44330;51.360;6.686;2023-03-26T14:31:34;9.60;71.00
42663;DHT22;44330;51.360;6.686;2023-03-26T14:40:01;10.10;79.20
42663;DHT22;44330;51.360;6.686;2023-03-26T14:53:46;10.50;73.30
42663;DHT22;44330;51.360;6.686;2023-03-26T14:59:24;10.20;76.20
42663;DHT22;44330;51.360;6.686;2023-03-26T15:02:45;10.10;74.60
42663;DHT22;44330;51.360;6.686;2023-03-26T15:11:04;10.10;72.60
42663;DHT22;44330;51.360;6.686;2023-03-26T15:14:02;10.00;73.70
42663;DHT22;44330;51.360;6.686;2023-03-26T15:22:35;10.00;81.80
42663;DHT22;44330;51.360;6.686;2023-03-26T15:25:33;10.00;81.30
42663;DHT22;44330;51.360;6.686;2023-03-26T15:43:10;9.40;81.80
42663;DHT22;44330;51.360;6.686;2023-03-26T15:53:34;9.30;88.20
42663;DHT22;44330;51.360;6.686;2023-03-26T16:02:22;9.20;90.20
42663;DHT22;44330;51.360;6.686;2023-03-26T16:04:53;9.10;90.90
42663;DHT22;44330;51.360;6.686;2023-03-26T16:10:19;9.10;91.20
42663;DHT22;44330;51.360;6.686;2023-03-26T16:13:16;9.10;91.10
42663;DHT22;44330;51.360;6.686;2023-03-26T16:15:41;9.00;90.50
42663;DHT22;44330;51.360;6.686;2023-03-26T16:23:34;8.80;83.60
42663;DHT22;44330;51.360;6.686;2023-03-26T16:31:18;8.60;87.60
42663;DHT22;44330;51.360;6.686;2023-03-26T16:41:31;8.40;80.20
42663;DHT22;44330;51.360;6.686;2023-03-26T16:44:18;8.40;80.40
42663;DHT22;44330;51.360;6.686;2023-03-26T16:46:58;8.40;79.30
42663;DHT22;44330;51.360;6.686;2023-03-26T16:49:31;8.40;78.50
42663;DHT22;44330;51.360;6.686;2023-03-26T16:52:09;8.40;78.80
42663;DHT22;44330;51.360;6.686;2023-03-26T16:55:02;8.40;74.10
42663;DHT22;44330;51.360;6.686;2023-03-26T16:57:40;8.40;76.90
42663;DHT22;44330;51.360;6.686;2023-03-26T17:02:49;8.40;76.60
42663;DHT22;44330;51.360;6.686;2023-03-26T17:05:22;8.40;78.40
42663;DHT22;44330;51.360;6.686;2023-03-26T17:11:19;8.40;81.60
42663;DHT22;44330;51.360;6.686;2023-03-26T17:14:17;8.30;81.40
42663;DHT22;44330;51.360;6.686;2023-03-26T17:16:48;8.30;82.80
42663;DHT22;44330;51.360;6.686;2023-03-26T17:19:31;8.40;83.60
42663;DHT22;44330;51.360;6.686;2023-03-26T17:22:10;8.50;80.40
42663;DHT22;44330;51.360;6.686;2023-03-26T17:25:43;8.40;79.90
42663;DHT22;44330;51.360;6.686;2023-03-26T17:30:51;8.40;74.80
42663;DHT22;44330;51.360;6.686;2023-03-26T17:33:35;8.40;72.50
42663;DHT22;44330;51.360;6.686;2023-03-26T17:41:07;8.20;68.00
42663;DHT22;44330;51.360;6.686;2023-03-26T17:43:43;8.20;64.10
42663;DHT22;44330;51.360;6.686;2023-03-26T17:48:43;8.30;65.80
42663;DHT22;44330;51.360;6.686;2023-03-26T17:51:29;8.30;69.30
42663;DHT22;44330;51.360;6.686;2023-03-26T17:53:56;8.30;70.40
42663;DHT22;44330;51.360;6.686;2023-03-26T17:56:27;8.30;63.00
42663;DHT22;44330;51.360;6.686;2023-03-26T17:58:54;8.20;63.90
42663;DHT22;44330;51.360;6.686;2023-03-26T18:01:35;8.20;65.10
42663;DHT22;44330;51.360;6.686;2023-03-26T18:04:05;8.20;68.10
42663;DHT22;44330;51.360;6.686;2023-03-26T18:13:04;8.00;54.70
42663;DHT22;44330;51.360;6.686;2023-03-26T18:18:20;8.00;53.10
42663;DHT22;44330;51.360;6.686;2023-03-26T18:20:48;7.90;56.20
42663;DHT22;44330;51.360;6.686;2023-03-26T18:23:25;7.90;59.10
42663;DHT22;44330;51.360;6.686;2023-03-26T18:26:08;7.80;54.60
42663;DHT22;44330;51.360;6.686;2023-03-26T18:28:40;7.80;50.10
42663;DHT22;44330;51.360;6.686;2023-03-26T18:31:22;7.70;45.20
42663;DHT22;44330;51.360;6.686;2023-03-26T18:33:50;7.70;50.70
42663;DHT22;44330;51.360;6.686;2023-03-26T18:36:19;7.70;40.40
42663;DHT22;44330;51.360;6.686;2023-03-26T18:38:48;7.70;47.10
42663;DHT22;44330;51.360;6.686;2023-03-26T18:41:35;7.70;40.10
42663;DHT22;44330;51.360;6.686;2023-03-26T18:44:13;7.60;42.00
42663;DHT22;44330;51.360;6.686;2023-03-26T18:46:41;7.60;30.40
42663;DHT22;44330;51.360;6.686;2023-03-26T18:49:10;7.60;32.20
42663;DHT22;44330;51.360;6.686;2023-03-26T18:51:36;7.50;25.60
42663;DHT22;44330;51.360;6.686;2023-03-26T18:54:04;7.40;37.70
42663;DHT22;44330;51.360;6.686;2023-03-26T18:56:37;7.40;41.80
42663;DHT22;44330;51.360;6.686;2023-03-26T18:59:28;7.50;44.30
42663;DHT22;44330;51.360;6.686;2023-03-26T19:01:57;7.50;44.60
42663;DHT22;44330;51.360;6.686;2023-03-26T19:04:25;7.50;39.80
42663;DHT22;44330;51.360;6.686;2023-03-26T19:06:56;7.50;43.70
42663;DHT22;44330;51.360;6.686;2023-03-26T19:09:23;7.50;39.30
42663;DHT22;44330;51.360;6.686;2023-03-26T19:11:54;7.40;30.90
42663;DHT22;44330;51.360;6.686;2023-03-26T19:14:22;7.40;34.90
42663;DHT22;44330;51.360;6.686;2023-03-26T19:16:57;7.30;30.70
42663;DHT22;44330;51.360;6.686;2023-03-26T19:19:35;7.30;34.90
42663;DHT22;44330;51.360;6.686;2023-03-26T19:22:07;7.30;33.20
42663;DHT22;44330;51.360;6.686;2023-03-26T19:24:33;7.30;35.00
42663;DHT22;44330;51.360;6.686;2023-03-26T19:26:59;7.40;28.60
42663;DHT22;44330;51.360;6.686;2023-03-26T19:29:32;7.30;35.50
42663;DHT22;44330;51.360;6.686;2023-03-26T19:32:16;7.30;29.90
42663;DHT22;44330;51.360;6.686;2023-03-26T19:34:44;7.30;29.10
42663;DHT22;44330;51.360;6.686;2023-03-26T19:37:21;7.30;32.00
42663;DHT22;44330;51.360;6.686;2023-03-26T19:39:59;7.20;29.50
42663;DHT22;44330;51.360;6.686;2023-03-26T19:42:30;7.10;33.50
42663;DHT22;44330;51.360;6.686;2023-03-26T19:45:03;7.20;19.60
42663;DHT22;44330;51.360;6.686;2023-03-26T19:47:40;7.20;17.90
42663;DHT22;44330;51.360;6.686;2023-03-26T19:50:25;7.10;17.50
42663;DHT22;44330;51.360;6.686;2023-03-26T19:53:11;7.00;19.40
42663;DHT22;44330;51.360;6.686;2023-03-26T19:55:38;7.00;28.10
42663;DHT22;44330;51.360;6.686;2023-03-26T19:58:09;7.00;26.10
42663;DHT22;44330;51.360;6.686;2023-03-26T20:00:36;6.90;19.50
42663;DHT22;44330;51.360;6.686;2023-03-26T20:03:02;6.80;19.60
42663;DHT22;44330;51.360;6.686;2023-03-26T20:05:32;6.90;14.10
42663;DHT22;44330;51.360;6.686;2023-03-26T20:07:59;6.90;14.60
42663;DHT22;44330;51.360;6.686;2023-03-26T20:10:27;6.90;7.10
42663;DHT22;44330;51.360;6.686;2023-03-26T20:12:53;6.80;13.20
42663;DHT22;44330;51.360;6.686;2023-03-26T20:15:23;6.70;17.80
42663;DHT22;44330;51.360;6.686;2023-03-26T20:17:49;6.80;9.20
42663;DHT22;44330;51.360;6.686;2023-03-26T20:20:18;6.70;8.80
42663;DHT22;44330;51.360;6.686;2023-03-26T20:22:45;6.70;7.00
42663;DHT22;44330;51.360;6.686;2023-03-26T20:25:25;6.60;1.10
42663;DHT22;44330;51.360;6.686;2023-03-26T20:27:51;6.70;1.00
42663;DHT22;44330;51.360;6.686;2023-03-26T20:30:19;6.60;6.60
42663;DHT22;44330;51.360;6.686;2023-03-26T20:32:45;6.50;3.80
42663;DHT22;44330;51.360;6.686;2023-03-26T20:35:22;6.50;4.70
42663;DHT22;44330;51.360;6.686;2023-03-26T20:37:48;6.50;1.00
42663;DHT22;44330;51.360;6.686;2023-03-26T20:40:15;6.60;1.40
42663;DHT22;44330;51.360;6.686;2023-03-26T20:42:42;6.50;1.00
42663;DHT22;44330;51.360;6.686;2023-03-26T20:45:19;6.50;1.00
42663;DHT22;44330;51.360;6.686;2023-03-26T20:47:46;6.50;1.00
42663;DHT22;44330;51.360;6.686;2023-03-26T20:50:17;6.40;99.90
42663;DHT22;44330;51.360;6.686;2023-03-26T20:52:48;6.30;99.90
42663;DHT22;44330;51.360;6.686;2023-03-26T20:55:16;6.30;99.90
42663;DHT22;44330;51.360;6.686;2023-03-26T20:57:43;6.30;99.90
42663;DHT22;44330;51.360;6.686;2023-03-26T21:00:11;6.30;99.90
42663;DHT22;44330;51.360;6.686;2023-03-26T21:02:52;6.20;1.00
42663;DHT22;44330;51.360;6.686;2023-03-26T21:05:24;6.30;1.00
42663;DHT22;44330;51.360;6.686;2023-03-26T21:10:20;6.10;99.90
42663;DHT22;44330;51.360;6.686;2023-03-26T21:12:52;6.10;99.90
42663;DHT22;44330;51.360;6.686;2023-03-26T21:15:21;6.10;99.90
42663;DHT22;44330;51.360;6.686;2023-03-26T21:17:48;6.10;99.90
42663;DHT22;44330;51.360;6.686;2023-03-26T21:20:14;6.10;99.90
42663;DHT22;44330;51.360;6.686;2023-03-26T21:28:33;5.90;1.00
42663;DHT22;44330;51.360;6.686;2023-03-26T21:30:59;5.90;99.90
42663;DHT22;44330;51.360;6.686;2023-03-26T21:33:26;5.90;99.90
42663;DHT22;44330;51.360;6.686;2023-03-26T21:35:53;5.80;99.90
42663;DHT22;44330;51.360;6.686;2023-03-26T21:38:22;5.80;99.90